<?xml version="1.0" encoding="UTF-8" standalone="no" ?>
<gpx xmlns="http://www.topografix.com/GPX/1/1" xmlns:xsi="http://www.w3.org/2001/XMLSchema-instance" xsi:schemaLocation="http://www.topografix.com/GPX/1/1 http://www.topografix.com/GPX/1/1/gpx.xsd" version="1.1" creator="VisuGPX - https://www.visugpx.com">
  <metadata>
    <name>Pic de Ballonque</name>
    <desc><![CDATA[Sortie ski de rando du Caf de Pau 06 février 2014
au pic de Ballonque par vent tempétueux]]></desc>
  </metadata>
  <trk>
    <name><![CDATA[TracA- actuel- 06 FEV 2014 08-47]]></name>
    <trkseg>
      <trkpt lat="42.9271" lon="0.19851">
        <ele>1273.4</ele>
        <time>2014-02-06T07:48:04Z</time>
      </trkpt>
      <trkpt lat="42.92711" lon="0.19855">
        <ele>1272.92</ele>
        <time>2014-02-06T07:48:34Z</time>
      </trkpt>
      <trkpt lat="42.92712" lon="0.19854">
        <ele>1276.29</ele>
        <time>2014-02-06T07:49:04Z</time>
      </trkpt>
      <trkpt lat="42.92708" lon="0.19858">
        <ele>1280.13</ele>
        <time>2014-02-06T07:49:34Z</time>
      </trkpt>
      <trkpt lat="42.92707" lon="0.1986">
        <ele>1277.25</ele>
        <time>2014-02-06T07:50:04Z</time>
      </trkpt>
      <trkpt lat="42.92705" lon="0.19858">
        <ele>1280.13</ele>
        <time>2014-02-06T07:50:34Z</time>
      </trkpt>
      <trkpt lat="42.92709" lon="0.19858">
        <ele>1280.61</ele>
        <time>2014-02-06T07:51:04Z</time>
      </trkpt>
      <trkpt lat="42.92709" lon="0.19841">
        <ele>1278.69</ele>
        <time>2014-02-06T07:51:34Z</time>
      </trkpt>
      <trkpt lat="42.92705" lon="0.19843">
        <ele>1282.54</ele>
        <time>2014-02-06T07:52:04Z</time>
      </trkpt>
      <trkpt lat="42.927" lon="0.1984">
        <ele>1288.78</ele>
        <time>2014-02-06T07:52:34Z</time>
      </trkpt>
      <trkpt lat="42.92701" lon="0.19842">
        <ele>1288.78</ele>
        <time>2014-02-06T07:53:04Z</time>
      </trkpt>
      <trkpt lat="42.92698" lon="0.19837">
        <ele>1289.27</ele>
        <time>2014-02-06T07:53:33Z</time>
      </trkpt>
      <trkpt lat="42.92698" lon="0.19841">
        <ele>1294.55</ele>
        <time>2014-02-06T07:54:04Z</time>
      </trkpt>
      <trkpt lat="42.92699" lon="0.19844">
        <ele>1296.48</ele>
        <time>2014-02-06T07:54:34Z</time>
      </trkpt>
      <trkpt lat="42.92703" lon="0.19841">
        <ele>1295.51</ele>
        <time>2014-02-06T07:55:04Z</time>
      </trkpt>
      <trkpt lat="42.927" lon="0.19841">
        <ele>1296.96</ele>
        <time>2014-02-06T07:55:34Z</time>
      </trkpt>
      <trkpt lat="42.92699" lon="0.19842">
        <ele>1298.88</ele>
        <time>2014-02-06T07:56:04Z</time>
      </trkpt>
      <trkpt lat="42.92703" lon="0.19844">
        <ele>1299.36</ele>
        <time>2014-02-06T07:56:34Z</time>
      </trkpt>
      <trkpt lat="42.92704" lon="0.19843">
        <ele>1293.59</ele>
        <time>2014-02-06T07:57:04Z</time>
      </trkpt>
      <trkpt lat="42.92701" lon="0.19844">
        <ele>1294.07</ele>
        <time>2014-02-06T07:57:34Z</time>
      </trkpt>
      <trkpt lat="42.92702" lon="0.19842">
        <ele>1291.67</ele>
        <time>2014-02-06T07:58:04Z</time>
      </trkpt>
      <trkpt lat="42.92701" lon="0.19842">
        <ele>1293.11</ele>
        <time>2014-02-06T07:58:34Z</time>
      </trkpt>
      <trkpt lat="42.92712" lon="0.19831">
        <ele>1293.11</ele>
        <time>2014-02-06T07:59:04Z</time>
      </trkpt>
      <trkpt lat="42.92721" lon="0.19822">
        <ele>1294.55</ele>
        <time>2014-02-06T07:59:34Z</time>
      </trkpt>
      <trkpt lat="42.92728" lon="0.19809">
        <ele>1292.63</ele>
        <time>2014-02-06T08:00:04Z</time>
      </trkpt>
      <trkpt lat="42.92719" lon="0.19802">
        <ele>1293.11</ele>
        <time>2014-02-06T08:00:34Z</time>
      </trkpt>
      <trkpt lat="42.92704" lon="0.19796">
        <ele>1291.67</ele>
        <time>2014-02-06T08:01:04Z</time>
      </trkpt>
      <trkpt lat="42.92701" lon="0.19791">
        <ele>1298.4</ele>
        <time>2014-02-06T08:01:34Z</time>
      </trkpt>
      <trkpt lat="42.92703" lon="0.1979">
        <ele>1296.96</ele>
        <time>2014-02-06T08:02:04Z</time>
      </trkpt>
      <trkpt lat="42.92696" lon="0.19783">
        <ele>1297.44</ele>
        <time>2014-02-06T08:02:34Z</time>
      </trkpt>
      <trkpt lat="42.92697" lon="0.19777">
        <ele>1297.44</ele>
        <time>2014-02-06T08:03:04Z</time>
      </trkpt>
      <trkpt lat="42.9269" lon="0.1978">
        <ele>1300.8</ele>
        <time>2014-02-06T08:03:34Z</time>
      </trkpt>
      <trkpt lat="42.92687" lon="0.19774">
        <ele>1307.05</ele>
        <time>2014-02-06T08:04:04Z</time>
      </trkpt>
      <trkpt lat="42.92691" lon="0.19764">
        <ele>1309.93</ele>
        <time>2014-02-06T08:04:34Z</time>
      </trkpt>
      <trkpt lat="42.92697" lon="0.19738">
        <ele>1309.45</ele>
        <time>2014-02-06T08:05:04Z</time>
      </trkpt>
      <trkpt lat="42.92697" lon="0.19732">
        <ele>1315.7</ele>
        <time>2014-02-06T08:05:34Z</time>
      </trkpt>
      <trkpt lat="42.92692" lon="0.19731">
        <ele>1317.62</ele>
        <time>2014-02-06T08:06:04Z</time>
      </trkpt>
      <trkpt lat="42.92692" lon="0.19724">
        <ele>1321.95</ele>
        <time>2014-02-06T08:06:34Z</time>
      </trkpt>
      <trkpt lat="42.92687" lon="0.19705">
        <ele>1320.99</ele>
        <time>2014-02-06T08:07:04Z</time>
      </trkpt>
      <trkpt lat="42.92679" lon="0.19682">
        <ele>1324.83</ele>
        <time>2014-02-06T08:07:34Z</time>
      </trkpt>
      <trkpt lat="42.92692" lon="0.19673">
        <ele>1327.72</ele>
        <time>2014-02-06T08:08:04Z</time>
      </trkpt>
      <trkpt lat="42.927" lon="0.19669">
        <ele>1334.93</ele>
        <time>2014-02-06T08:08:34Z</time>
      </trkpt>
      <trkpt lat="42.92698" lon="0.19654">
        <ele>1340.22</ele>
        <time>2014-02-06T08:09:04Z</time>
      </trkpt>
      <trkpt lat="42.92696" lon="0.19637">
        <ele>1342.14</ele>
        <time>2014-02-06T08:09:34Z</time>
      </trkpt>
      <trkpt lat="42.92698" lon="0.19639">
        <ele>1342.14</ele>
        <time>2014-02-06T08:10:04Z</time>
      </trkpt>
      <trkpt lat="42.92694" lon="0.19641">
        <ele>1341.66</ele>
        <time>2014-02-06T08:10:34Z</time>
      </trkpt>
      <trkpt lat="42.92692" lon="0.19643">
        <ele>1345.98</ele>
        <time>2014-02-06T08:11:04Z</time>
      </trkpt>
      <trkpt lat="42.9269" lon="0.19657">
        <ele>1357.04</ele>
        <time>2014-02-06T08:11:34Z</time>
      </trkpt>
      <trkpt lat="42.92689" lon="0.19658">
        <ele>1360.88</ele>
        <time>2014-02-06T08:12:04Z</time>
      </trkpt>
      <trkpt lat="42.92693" lon="0.19652">
        <ele>1355.6</ele>
        <time>2014-02-06T08:12:34Z</time>
      </trkpt>
      <trkpt lat="42.92695" lon="0.1964">
        <ele>1350.79</ele>
        <time>2014-02-06T08:13:04Z</time>
      </trkpt>
      <trkpt lat="42.92699" lon="0.19653">
        <ele>1344.06</ele>
        <time>2014-02-06T08:13:34Z</time>
      </trkpt>
      <trkpt lat="42.92695" lon="0.1965">
        <ele>1344.06</ele>
        <time>2014-02-06T08:14:04Z</time>
      </trkpt>
      <trkpt lat="42.92685" lon="0.19622">
        <ele>1347.91</ele>
        <time>2014-02-06T08:14:34Z</time>
      </trkpt>
      <trkpt lat="42.92671" lon="0.19615">
        <ele>1345.98</ele>
        <time>2014-02-06T08:15:04Z</time>
      </trkpt>
      <trkpt lat="42.92673" lon="0.19611">
        <ele>1346.94</ele>
        <time>2014-02-06T08:15:34Z</time>
      </trkpt>
      <trkpt lat="42.92672" lon="0.19609">
        <ele>1348.87</ele>
        <time>2014-02-06T08:16:04Z</time>
      </trkpt>
      <trkpt lat="42.92678" lon="0.19604">
        <ele>1346.46</ele>
        <time>2014-02-06T08:16:34Z</time>
      </trkpt>
      <trkpt lat="42.92661" lon="0.19596">
        <ele>1346.94</ele>
        <time>2014-02-06T08:17:04Z</time>
      </trkpt>
      <trkpt lat="42.92646" lon="0.1959">
        <ele>1350.31</ele>
        <time>2014-02-06T08:17:34Z</time>
      </trkpt>
      <trkpt lat="42.92638" lon="0.19583">
        <ele>1352.71</ele>
        <time>2014-02-06T08:18:04Z</time>
      </trkpt>
      <trkpt lat="42.9263" lon="0.19563">
        <ele>1353.67</ele>
        <time>2014-02-06T08:18:34Z</time>
      </trkpt>
      <trkpt lat="42.92626" lon="0.19542">
        <ele>1358</ele>
        <time>2014-02-06T08:19:04Z</time>
      </trkpt>
      <trkpt lat="42.92625" lon="0.19524">
        <ele>1366.65</ele>
        <time>2014-02-06T08:19:34Z</time>
      </trkpt>
      <trkpt lat="42.92629" lon="0.19498">
        <ele>1370.98</ele>
        <time>2014-02-06T08:20:04Z</time>
      </trkpt>
      <trkpt lat="42.92631" lon="0.19478">
        <ele>1379.15</ele>
        <time>2014-02-06T08:20:34Z</time>
      </trkpt>
      <trkpt lat="42.92644" lon="0.19475">
        <ele>1379.63</ele>
        <time>2014-02-06T08:21:04Z</time>
      </trkpt>
      <trkpt lat="42.92652" lon="0.1947">
        <ele>1383.96</ele>
        <time>2014-02-06T08:21:34Z</time>
      </trkpt>
      <trkpt lat="42.92651" lon="0.19443">
        <ele>1388.76</ele>
        <time>2014-02-06T08:22:04Z</time>
      </trkpt>
      <trkpt lat="42.92663" lon="0.19424">
        <ele>1391.65</ele>
        <time>2014-02-06T08:22:34Z</time>
      </trkpt>
      <trkpt lat="42.92668" lon="0.19411">
        <ele>1394.05</ele>
        <time>2014-02-06T08:23:04Z</time>
      </trkpt>
      <trkpt lat="42.9267" lon="0.19411">
        <ele>1396.45</ele>
        <time>2014-02-06T08:23:34Z</time>
      </trkpt>
      <trkpt lat="42.92664" lon="0.19411">
        <ele>1403.66</ele>
        <time>2014-02-06T08:24:04Z</time>
      </trkpt>
      <trkpt lat="42.92663" lon="0.19411">
        <ele>1411.35</ele>
        <time>2014-02-06T08:24:34Z</time>
      </trkpt>
      <trkpt lat="42.92667" lon="0.19404">
        <ele>1410.39</ele>
        <time>2014-02-06T08:25:04Z</time>
      </trkpt>
      <trkpt lat="42.92657" lon="0.19401">
        <ele>1409.91</ele>
        <time>2014-02-06T08:25:34Z</time>
      </trkpt>
      <trkpt lat="42.92645" lon="0.1938">
        <ele>1412.79</ele>
        <time>2014-02-06T08:26:04Z</time>
      </trkpt>
      <trkpt lat="42.92633" lon="0.19352">
        <ele>1415.2</ele>
        <time>2014-02-06T08:26:34Z</time>
      </trkpt>
      <trkpt lat="42.92621" lon="0.19328">
        <ele>1415.68</ele>
        <time>2014-02-06T08:27:04Z</time>
      </trkpt>
      <trkpt lat="42.92594" lon="0.19324">
        <ele>1412.79</ele>
        <time>2014-02-06T08:27:34Z</time>
      </trkpt>
      <trkpt lat="42.92567" lon="0.19315">
        <ele>1413.28</ele>
        <time>2014-02-06T08:28:04Z</time>
      </trkpt>
      <trkpt lat="42.92548" lon="0.193">
        <ele>1412.31</ele>
        <time>2014-02-06T08:28:34Z</time>
      </trkpt>
      <trkpt lat="42.92539" lon="0.19275">
        <ele>1417.12</ele>
        <time>2014-02-06T08:29:04Z</time>
      </trkpt>
      <trkpt lat="42.92553" lon="0.19248">
        <ele>1420.97</ele>
        <time>2014-02-06T08:29:34Z</time>
      </trkpt>
      <trkpt lat="42.92559" lon="0.19207">
        <ele>1425.77</ele>
        <time>2014-02-06T08:30:04Z</time>
      </trkpt>
      <trkpt lat="42.92564" lon="0.19175">
        <ele>1426.25</ele>
        <time>2014-02-06T08:30:34Z</time>
      </trkpt>
      <trkpt lat="42.92567" lon="0.19167">
        <ele>1430.58</ele>
        <time>2014-02-06T08:31:04Z</time>
      </trkpt>
      <trkpt lat="42.9257" lon="0.19167">
        <ele>1431.06</ele>
        <time>2014-02-06T08:31:34Z</time>
      </trkpt>
      <trkpt lat="42.9257" lon="0.19168">
        <ele>1432.02</ele>
        <time>2014-02-06T08:32:04Z</time>
      </trkpt>
      <trkpt lat="42.92565" lon="0.19171">
        <ele>1428.66</ele>
        <time>2014-02-06T08:32:34Z</time>
      </trkpt>
      <trkpt lat="42.92567" lon="0.19168">
        <ele>1430.58</ele>
        <time>2014-02-06T08:33:04Z</time>
      </trkpt>
      <trkpt lat="42.9257" lon="0.19167">
        <ele>1428.66</ele>
        <time>2014-02-06T08:33:34Z</time>
      </trkpt>
      <trkpt lat="42.92572" lon="0.1917">
        <ele>1432.02</ele>
        <time>2014-02-06T08:34:04Z</time>
      </trkpt>
      <trkpt lat="42.9257" lon="0.19167">
        <ele>1432.02</ele>
        <time>2014-02-06T08:34:34Z</time>
      </trkpt>
      <trkpt lat="42.92573" lon="0.19164">
        <ele>1437.79</ele>
        <time>2014-02-06T08:35:04Z</time>
      </trkpt>
      <trkpt lat="42.9257" lon="0.19161">
        <ele>1435.87</ele>
        <time>2014-02-06T08:35:33Z</time>
      </trkpt>
      <trkpt lat="42.9258" lon="0.19135">
        <ele>1436.35</ele>
        <time>2014-02-06T08:36:04Z</time>
      </trkpt>
      <trkpt lat="42.92589" lon="0.19104">
        <ele>1437.79</ele>
        <time>2014-02-06T08:36:34Z</time>
      </trkpt>
      <trkpt lat="42.926" lon="0.19076">
        <ele>1439.71</ele>
        <time>2014-02-06T08:37:04Z</time>
      </trkpt>
      <trkpt lat="42.92606" lon="0.19047">
        <ele>1439.71</ele>
        <time>2014-02-06T08:37:34Z</time>
      </trkpt>
      <trkpt lat="42.92609" lon="0.1901">
        <ele>1442.6</ele>
        <time>2014-02-06T08:38:04Z</time>
      </trkpt>
      <trkpt lat="42.92607" lon="0.18978">
        <ele>1446.44</ele>
        <time>2014-02-06T08:38:34Z</time>
      </trkpt>
      <trkpt lat="42.92612" lon="0.18947">
        <ele>1448.84</ele>
        <time>2014-02-06T08:39:04Z</time>
      </trkpt>
      <trkpt lat="42.92613" lon="0.1891">
        <ele>1445.96</ele>
        <time>2014-02-06T08:39:34Z</time>
      </trkpt>
      <trkpt lat="42.92602" lon="0.18882">
        <ele>1455.09</ele>
        <time>2014-02-06T08:40:04Z</time>
      </trkpt>
      <trkpt lat="42.92593" lon="0.18867">
        <ele>1464.23</ele>
        <time>2014-02-06T08:40:34Z</time>
      </trkpt>
      <trkpt lat="42.9259" lon="0.18839">
        <ele>1466.63</ele>
        <time>2014-02-06T08:41:04Z</time>
      </trkpt>
      <trkpt lat="42.92597" lon="0.18806">
        <ele>1469.51</ele>
        <time>2014-02-06T08:41:34Z</time>
      </trkpt>
      <trkpt lat="42.92601" lon="0.18778">
        <ele>1475.76</ele>
        <time>2014-02-06T08:42:04Z</time>
      </trkpt>
      <trkpt lat="42.92608" lon="0.18751">
        <ele>1482.01</ele>
        <time>2014-02-06T08:42:34Z</time>
      </trkpt>
      <trkpt lat="42.9261" lon="0.18725">
        <ele>1483.45</ele>
        <time>2014-02-06T08:43:04Z</time>
      </trkpt>
      <trkpt lat="42.92612" lon="0.18692">
        <ele>1489.22</ele>
        <time>2014-02-06T08:43:34Z</time>
      </trkpt>
      <trkpt lat="42.92618" lon="0.18665">
        <ele>1488.26</ele>
        <time>2014-02-06T08:44:04Z</time>
      </trkpt>
      <trkpt lat="42.92623" lon="0.18635">
        <ele>1492.58</ele>
        <time>2014-02-06T08:44:34Z</time>
      </trkpt>
      <trkpt lat="42.92631" lon="0.18605">
        <ele>1496.91</ele>
        <time>2014-02-06T08:45:04Z</time>
      </trkpt>
      <trkpt lat="42.92642" lon="0.18579">
        <ele>1501.72</ele>
        <time>2014-02-06T08:45:34Z</time>
      </trkpt>
      <trkpt lat="42.92656" lon="0.18556">
        <ele>1506.52</ele>
        <time>2014-02-06T08:46:04Z</time>
      </trkpt>
      <trkpt lat="42.92669" lon="0.18535">
        <ele>1512.29</ele>
        <time>2014-02-06T08:46:34Z</time>
      </trkpt>
      <trkpt lat="42.92679" lon="0.18512">
        <ele>1514.21</ele>
        <time>2014-02-06T08:47:04Z</time>
      </trkpt>
      <trkpt lat="42.92694" lon="0.18494">
        <ele>1519.02</ele>
        <time>2014-02-06T08:47:34Z</time>
      </trkpt>
      <trkpt lat="42.92709" lon="0.18475">
        <ele>1523.83</ele>
        <time>2014-02-06T08:48:04Z</time>
      </trkpt>
      <trkpt lat="42.92733" lon="0.18458">
        <ele>1532</ele>
        <time>2014-02-06T08:48:34Z</time>
      </trkpt>
      <trkpt lat="42.92753" lon="0.18445">
        <ele>1531.52</ele>
        <time>2014-02-06T08:49:04Z</time>
      </trkpt>
      <trkpt lat="42.9277" lon="0.18423">
        <ele>1534.88</ele>
        <time>2014-02-06T08:49:34Z</time>
      </trkpt>
      <trkpt lat="42.92787" lon="0.18402">
        <ele>1538.25</ele>
        <time>2014-02-06T08:50:04Z</time>
      </trkpt>
      <trkpt lat="42.92796" lon="0.1837">
        <ele>1540.65</ele>
        <time>2014-02-06T08:50:34Z</time>
      </trkpt>
      <trkpt lat="42.92803" lon="0.1834">
        <ele>1544.5</ele>
        <time>2014-02-06T08:51:04Z</time>
      </trkpt>
      <trkpt lat="42.92803" lon="0.18313">
        <ele>1548.34</ele>
        <time>2014-02-06T08:51:34Z</time>
      </trkpt>
      <trkpt lat="42.9281" lon="0.1829">
        <ele>1552.67</ele>
        <time>2014-02-06T08:52:04Z</time>
      </trkpt>
      <trkpt lat="42.92828" lon="0.18264">
        <ele>1559.4</ele>
        <time>2014-02-06T08:52:34Z</time>
      </trkpt>
      <trkpt lat="42.92843" lon="0.18235">
        <ele>1562.28</ele>
        <time>2014-02-06T08:53:04Z</time>
      </trkpt>
      <trkpt lat="42.92848" lon="0.18212">
        <ele>1560.36</ele>
        <time>2014-02-06T08:53:34Z</time>
      </trkpt>
      <trkpt lat="42.92847" lon="0.1821">
        <ele>1562.76</ele>
        <time>2014-02-06T08:54:04Z</time>
      </trkpt>
      <trkpt lat="42.9285" lon="0.18205">
        <ele>1563.24</ele>
        <time>2014-02-06T08:54:34Z</time>
      </trkpt>
      <trkpt lat="42.92852" lon="0.18208">
        <ele>1561.8</ele>
        <time>2014-02-06T08:55:04Z</time>
      </trkpt>
      <trkpt lat="42.92854" lon="0.18202">
        <ele>1566.12</ele>
        <time>2014-02-06T08:55:34Z</time>
      </trkpt>
      <trkpt lat="42.92864" lon="0.18186">
        <ele>1568.05</ele>
        <time>2014-02-06T08:56:04Z</time>
      </trkpt>
      <trkpt lat="42.92885" lon="0.18164">
        <ele>1569.01</ele>
        <time>2014-02-06T08:56:34Z</time>
      </trkpt>
      <trkpt lat="42.92908" lon="0.18142">
        <ele>1571.89</ele>
        <time>2014-02-06T08:57:04Z</time>
      </trkpt>
      <trkpt lat="42.9292" lon="0.18125">
        <ele>1570.93</ele>
        <time>2014-02-06T08:57:34Z</time>
      </trkpt>
      <trkpt lat="42.92943" lon="0.18105">
        <ele>1576.7</ele>
        <time>2014-02-06T08:58:04Z</time>
      </trkpt>
      <trkpt lat="42.92963" lon="0.18081">
        <ele>1573.33</ele>
        <time>2014-02-06T08:58:34Z</time>
      </trkpt>
      <trkpt lat="42.92983" lon="0.18052">
        <ele>1572.37</ele>
        <time>2014-02-06T08:59:04Z</time>
      </trkpt>
      <trkpt lat="42.92997" lon="0.18016">
        <ele>1575.26</ele>
        <time>2014-02-06T08:59:34Z</time>
      </trkpt>
      <trkpt lat="42.9301" lon="0.17987">
        <ele>1576.22</ele>
        <time>2014-02-06T09:00:04Z</time>
      </trkpt>
      <trkpt lat="42.93021" lon="0.17965">
        <ele>1582.47</ele>
        <time>2014-02-06T09:00:34Z</time>
      </trkpt>
      <trkpt lat="42.93033" lon="0.17938">
        <ele>1585.83</ele>
        <time>2014-02-06T09:01:04Z</time>
      </trkpt>
      <trkpt lat="42.93049" lon="0.17905">
        <ele>1588.72</ele>
        <time>2014-02-06T09:01:34Z</time>
      </trkpt>
      <trkpt lat="42.93064" lon="0.17874">
        <ele>1592.08</ele>
        <time>2014-02-06T09:02:04Z</time>
      </trkpt>
      <trkpt lat="42.93074" lon="0.1784">
        <ele>1592.56</ele>
        <time>2014-02-06T09:02:34Z</time>
      </trkpt>
      <trkpt lat="42.93082" lon="0.17812">
        <ele>1592.08</ele>
        <time>2014-02-06T09:03:04Z</time>
      </trkpt>
      <trkpt lat="42.9309" lon="0.17784">
        <ele>1597.37</ele>
        <time>2014-02-06T09:03:34Z</time>
      </trkpt>
      <trkpt lat="42.93097" lon="0.17753">
        <ele>1597.37</ele>
        <time>2014-02-06T09:04:04Z</time>
      </trkpt>
      <trkpt lat="42.93104" lon="0.17739">
        <ele>1602.17</ele>
        <time>2014-02-06T09:04:34Z</time>
      </trkpt>
      <trkpt lat="42.93111" lon="0.1771">
        <ele>1603.62</ele>
        <time>2014-02-06T09:05:04Z</time>
      </trkpt>
      <trkpt lat="42.93124" lon="0.17677">
        <ele>1606.02</ele>
        <time>2014-02-06T09:05:34Z</time>
      </trkpt>
      <trkpt lat="42.93137" lon="0.17648">
        <ele>1604.1</ele>
        <time>2014-02-06T09:06:04Z</time>
      </trkpt>
      <trkpt lat="42.93147" lon="0.17616">
        <ele>1612.75</ele>
        <time>2014-02-06T09:06:34Z</time>
      </trkpt>
      <trkpt lat="42.93156" lon="0.17576">
        <ele>1609.86</ele>
        <time>2014-02-06T09:07:04Z</time>
      </trkpt>
      <trkpt lat="42.93166" lon="0.17549">
        <ele>1615.15</ele>
        <time>2014-02-06T09:07:34Z</time>
      </trkpt>
      <trkpt lat="42.93181" lon="0.1754">
        <ele>1617.07</ele>
        <time>2014-02-06T09:08:04Z</time>
      </trkpt>
      <trkpt lat="42.93194" lon="0.1751">
        <ele>1619</ele>
        <time>2014-02-06T09:08:34Z</time>
      </trkpt>
      <trkpt lat="42.93205" lon="0.17493">
        <ele>1616.59</ele>
        <time>2014-02-06T09:09:04Z</time>
      </trkpt>
      <trkpt lat="42.93203" lon="0.17481">
        <ele>1618.52</ele>
        <time>2014-02-06T09:09:34Z</time>
      </trkpt>
      <trkpt lat="42.93205" lon="0.17488">
        <ele>1619.96</ele>
        <time>2014-02-06T09:10:04Z</time>
      </trkpt>
      <trkpt lat="42.93202" lon="0.17485">
        <ele>1625.25</ele>
        <time>2014-02-06T09:10:34Z</time>
      </trkpt>
      <trkpt lat="42.93208" lon="0.17488">
        <ele>1626.21</ele>
        <time>2014-02-06T09:11:04Z</time>
      </trkpt>
      <trkpt lat="42.93215" lon="0.17443">
        <ele>1619.96</ele>
        <time>2014-02-06T09:11:34Z</time>
      </trkpt>
      <trkpt lat="42.93221" lon="0.17404">
        <ele>1620.44</ele>
        <time>2014-02-06T09:12:04Z</time>
      </trkpt>
      <trkpt lat="42.93234" lon="0.17381">
        <ele>1621.88</ele>
        <time>2014-02-06T09:12:34Z</time>
      </trkpt>
      <trkpt lat="42.93252" lon="0.17353">
        <ele>1623.8</ele>
        <time>2014-02-06T09:13:04Z</time>
      </trkpt>
      <trkpt lat="42.93264" lon="0.17317">
        <ele>1622.84</ele>
        <time>2014-02-06T09:13:34Z</time>
      </trkpt>
      <trkpt lat="42.93275" lon="0.17277">
        <ele>1626.21</ele>
        <time>2014-02-06T09:14:04Z</time>
      </trkpt>
      <trkpt lat="42.93285" lon="0.17239">
        <ele>1622.36</ele>
        <time>2014-02-06T09:14:34Z</time>
      </trkpt>
      <trkpt lat="42.93287" lon="0.17207">
        <ele>1629.57</ele>
        <time>2014-02-06T09:15:04Z</time>
      </trkpt>
      <trkpt lat="42.93292" lon="0.17183">
        <ele>1633.42</ele>
        <time>2014-02-06T09:15:34Z</time>
      </trkpt>
      <trkpt lat="42.93291" lon="0.17183">
        <ele>1636.3</ele>
        <time>2014-02-06T09:16:04Z</time>
      </trkpt>
      <trkpt lat="42.93292" lon="0.17183">
        <ele>1638.7</ele>
        <time>2014-02-06T09:16:34Z</time>
      </trkpt>
      <trkpt lat="42.93297" lon="0.17181">
        <ele>1641.11</ele>
        <time>2014-02-06T09:17:04Z</time>
      </trkpt>
      <trkpt lat="42.93317" lon="0.17184">
        <ele>1646.4</ele>
        <time>2014-02-06T09:17:34Z</time>
      </trkpt>
      <trkpt lat="42.93328" lon="0.17187">
        <ele>1652.16</ele>
        <time>2014-02-06T09:18:04Z</time>
      </trkpt>
      <trkpt lat="42.9331" lon="0.17183">
        <ele>1660.33</ele>
        <time>2014-02-06T09:18:33Z</time>
      </trkpt>
      <trkpt lat="42.93313" lon="0.17189">
        <ele>1655.53</ele>
        <time>2014-02-06T09:19:04Z</time>
      </trkpt>
      <trkpt lat="42.93296" lon="0.17182">
        <ele>1648.8</ele>
        <time>2014-02-06T09:19:34Z</time>
      </trkpt>
      <trkpt lat="42.93296" lon="0.17155">
        <ele>1648.32</ele>
        <time>2014-02-06T09:20:04Z</time>
      </trkpt>
      <trkpt lat="42.93306" lon="0.17142">
        <ele>1646.4</ele>
        <time>2014-02-06T09:20:34Z</time>
      </trkpt>
      <trkpt lat="42.93305" lon="0.17132">
        <ele>1641.11</ele>
        <time>2014-02-06T09:21:04Z</time>
      </trkpt>
      <trkpt lat="42.933" lon="0.17123">
        <ele>1643.51</ele>
        <time>2014-02-06T09:21:34Z</time>
      </trkpt>
      <trkpt lat="42.93304" lon="0.17122">
        <ele>1642.07</ele>
        <time>2014-02-06T09:22:04Z</time>
      </trkpt>
      <trkpt lat="42.93302" lon="0.17123">
        <ele>1642.55</ele>
        <time>2014-02-06T09:22:34Z</time>
      </trkpt>
      <trkpt lat="42.93301" lon="0.17124">
        <ele>1644.95</ele>
        <time>2014-02-06T09:23:04Z</time>
      </trkpt>
      <trkpt lat="42.93303" lon="0.17125">
        <ele>1643.99</ele>
        <time>2014-02-06T09:23:34Z</time>
      </trkpt>
      <trkpt lat="42.93303" lon="0.17125">
        <ele>1644.95</ele>
        <time>2014-02-06T09:24:04Z</time>
      </trkpt>
      <trkpt lat="42.93303" lon="0.17099">
        <ele>1645.43</ele>
        <time>2014-02-06T09:24:34Z</time>
      </trkpt>
      <trkpt lat="42.93298" lon="0.17067">
        <ele>1644.95</ele>
        <time>2014-02-06T09:25:04Z</time>
      </trkpt>
      <trkpt lat="42.93298" lon="0.17041">
        <ele>1646.88</ele>
        <time>2014-02-06T09:25:34Z</time>
      </trkpt>
      <trkpt lat="42.93295" lon="0.17009">
        <ele>1651.68</ele>
        <time>2014-02-06T09:26:04Z</time>
      </trkpt>
      <trkpt lat="42.93298" lon="0.16979">
        <ele>1656.97</ele>
        <time>2014-02-06T09:26:34Z</time>
      </trkpt>
      <trkpt lat="42.93303" lon="0.16947">
        <ele>1659.85</ele>
        <time>2014-02-06T09:27:04Z</time>
      </trkpt>
      <trkpt lat="42.93293" lon="0.16918">
        <ele>1663.22</ele>
        <time>2014-02-06T09:27:34Z</time>
      </trkpt>
      <trkpt lat="42.93296" lon="0.16888">
        <ele>1668.99</ele>
        <time>2014-02-06T09:28:04Z</time>
      </trkpt>
      <trkpt lat="42.93305" lon="0.1687">
        <ele>1670.91</ele>
        <time>2014-02-06T09:28:34Z</time>
      </trkpt>
      <trkpt lat="42.93319" lon="0.16844">
        <ele>1673.31</ele>
        <time>2014-02-06T09:29:04Z</time>
      </trkpt>
      <trkpt lat="42.93331" lon="0.16823">
        <ele>1675.23</ele>
        <time>2014-02-06T09:29:34Z</time>
      </trkpt>
      <trkpt lat="42.93345" lon="0.16798">
        <ele>1679.08</ele>
        <time>2014-02-06T09:30:04Z</time>
      </trkpt>
      <trkpt lat="42.93361" lon="0.16771">
        <ele>1681.96</ele>
        <time>2014-02-06T09:30:34Z</time>
      </trkpt>
      <trkpt lat="42.93372" lon="0.1675">
        <ele>1689.17</ele>
        <time>2014-02-06T09:31:04Z</time>
      </trkpt>
      <trkpt lat="42.93381" lon="0.16734">
        <ele>1701.19</ele>
        <time>2014-02-06T09:31:34Z</time>
      </trkpt>
      <trkpt lat="42.9339" lon="0.16711">
        <ele>1702.63</ele>
        <time>2014-02-06T09:32:04Z</time>
      </trkpt>
      <trkpt lat="42.93398" lon="0.16695">
        <ele>1704.55</ele>
        <time>2014-02-06T09:32:34Z</time>
      </trkpt>
      <trkpt lat="42.93408" lon="0.1668">
        <ele>1705.52</ele>
        <time>2014-02-06T09:33:04Z</time>
      </trkpt>
      <trkpt lat="42.93419" lon="0.16658">
        <ele>1709.36</ele>
        <time>2014-02-06T09:33:34Z</time>
      </trkpt>
      <trkpt lat="42.93432" lon="0.16629">
        <ele>1711.76</ele>
        <time>2014-02-06T09:34:04Z</time>
      </trkpt>
      <trkpt lat="42.93447" lon="0.16615">
        <ele>1712.73</ele>
        <time>2014-02-06T09:34:34Z</time>
      </trkpt>
      <trkpt lat="42.93461" lon="0.16584">
        <ele>1716.09</ele>
        <time>2014-02-06T09:35:04Z</time>
      </trkpt>
      <trkpt lat="42.93474" lon="0.16559">
        <ele>1718.01</ele>
        <time>2014-02-06T09:35:34Z</time>
      </trkpt>
      <trkpt lat="42.9349" lon="0.16545">
        <ele>1718.97</ele>
        <time>2014-02-06T09:36:04Z</time>
      </trkpt>
      <trkpt lat="42.93507" lon="0.16526">
        <ele>1721.86</ele>
        <time>2014-02-06T09:36:34Z</time>
      </trkpt>
      <trkpt lat="42.93524" lon="0.16507">
        <ele>1723.78</ele>
        <time>2014-02-06T09:37:04Z</time>
      </trkpt>
      <trkpt lat="42.93539" lon="0.16487">
        <ele>1725.7</ele>
        <time>2014-02-06T09:37:34Z</time>
      </trkpt>
      <trkpt lat="42.93554" lon="0.16471">
        <ele>1728.11</ele>
        <time>2014-02-06T09:38:04Z</time>
      </trkpt>
      <trkpt lat="42.93567" lon="0.16451">
        <ele>1727.63</ele>
        <time>2014-02-06T09:38:34Z</time>
      </trkpt>
      <trkpt lat="42.93578" lon="0.16427">
        <ele>1730.99</ele>
        <time>2014-02-06T09:39:04Z</time>
      </trkpt>
      <trkpt lat="42.93589" lon="0.16404">
        <ele>1734.36</ele>
        <time>2014-02-06T09:39:34Z</time>
      </trkpt>
      <trkpt lat="42.93599" lon="0.16394">
        <ele>1737.24</ele>
        <time>2014-02-06T09:40:04Z</time>
      </trkpt>
      <trkpt lat="42.93616" lon="0.16376">
        <ele>1743.97</ele>
        <time>2014-02-06T09:40:34Z</time>
      </trkpt>
      <trkpt lat="42.93635" lon="0.16364">
        <ele>1748.29</ele>
        <time>2014-02-06T09:41:04Z</time>
      </trkpt>
      <trkpt lat="42.93659" lon="0.16338">
        <ele>1750.7</ele>
        <time>2014-02-06T09:41:34Z</time>
      </trkpt>
      <trkpt lat="42.93677" lon="0.16324">
        <ele>1752.14</ele>
        <time>2014-02-06T09:42:04Z</time>
      </trkpt>
      <trkpt lat="42.93679" lon="0.16326">
        <ele>1754.06</ele>
        <time>2014-02-06T09:42:34Z</time>
      </trkpt>
      <trkpt lat="42.93678" lon="0.16323">
        <ele>1756.47</ele>
        <time>2014-02-06T09:43:04Z</time>
      </trkpt>
      <trkpt lat="42.93679" lon="0.16322">
        <ele>1757.43</ele>
        <time>2014-02-06T09:43:34Z</time>
      </trkpt>
      <trkpt lat="42.9368" lon="0.16318">
        <ele>1758.39</ele>
        <time>2014-02-06T09:44:04Z</time>
      </trkpt>
      <trkpt lat="42.93682" lon="0.16312">
        <ele>1753.1</ele>
        <time>2014-02-06T09:44:34Z</time>
      </trkpt>
      <trkpt lat="42.93683" lon="0.16308">
        <ele>1762.71</ele>
        <time>2014-02-06T09:45:04Z</time>
      </trkpt>
      <trkpt lat="42.93683" lon="0.16316">
        <ele>1758.87</ele>
        <time>2014-02-06T09:45:34Z</time>
      </trkpt>
      <trkpt lat="42.93681" lon="0.16316">
        <ele>1756.47</ele>
        <time>2014-02-06T09:46:04Z</time>
      </trkpt>
      <trkpt lat="42.93681" lon="0.16317">
        <ele>1753.1</ele>
        <time>2014-02-06T09:46:34Z</time>
      </trkpt>
      <trkpt lat="42.93681" lon="0.16315">
        <ele>1755.02</ele>
        <time>2014-02-06T09:47:04Z</time>
      </trkpt>
      <trkpt lat="42.93683" lon="0.16316">
        <ele>1753.58</ele>
        <time>2014-02-06T09:47:34Z</time>
      </trkpt>
      <trkpt lat="42.93683" lon="0.16314">
        <ele>1752.14</ele>
        <time>2014-02-06T09:48:04Z</time>
      </trkpt>
      <trkpt lat="42.93683" lon="0.16318">
        <ele>1749.26</ele>
        <time>2014-02-06T09:48:34Z</time>
      </trkpt>
      <trkpt lat="42.93682" lon="0.16312">
        <ele>1747.81</ele>
        <time>2014-02-06T09:49:04Z</time>
      </trkpt>
      <trkpt lat="42.93679" lon="0.16311">
        <ele>1748.29</ele>
        <time>2014-02-06T09:49:34Z</time>
      </trkpt>
      <trkpt lat="42.93683" lon="0.16313">
        <ele>1751.18</ele>
        <time>2014-02-06T09:50:04Z</time>
      </trkpt>
      <trkpt lat="42.93681" lon="0.16315">
        <ele>1748.78</ele>
        <time>2014-02-06T09:50:34Z</time>
      </trkpt>
      <trkpt lat="42.93684" lon="0.16317">
        <ele>1747.81</ele>
        <time>2014-02-06T09:51:04Z</time>
      </trkpt>
      <trkpt lat="42.93691" lon="0.1632">
        <ele>1747.33</ele>
        <time>2014-02-06T09:51:34Z</time>
      </trkpt>
      <trkpt lat="42.93708" lon="0.16312">
        <ele>1751.66</ele>
        <time>2014-02-06T09:52:04Z</time>
      </trkpt>
      <trkpt lat="42.93722" lon="0.16303">
        <ele>1760.79</ele>
        <time>2014-02-06T09:52:34Z</time>
      </trkpt>
      <trkpt lat="42.93738" lon="0.16293">
        <ele>1761.27</ele>
        <time>2014-02-06T09:53:04Z</time>
      </trkpt>
      <trkpt lat="42.93751" lon="0.16281">
        <ele>1767.52</ele>
        <time>2014-02-06T09:53:34Z</time>
      </trkpt>
      <trkpt lat="42.93763" lon="0.16265">
        <ele>1770.41</ele>
        <time>2014-02-06T09:54:04Z</time>
      </trkpt>
      <trkpt lat="42.93777" lon="0.16256">
        <ele>1773.29</ele>
        <time>2014-02-06T09:54:34Z</time>
      </trkpt>
      <trkpt lat="42.93798" lon="0.16246">
        <ele>1776.65</ele>
        <time>2014-02-06T09:55:04Z</time>
      </trkpt>
      <trkpt lat="42.9382" lon="0.16245">
        <ele>1783.38</ele>
        <time>2014-02-06T09:55:34Z</time>
      </trkpt>
      <trkpt lat="42.93838" lon="0.16238">
        <ele>1784.82</ele>
        <time>2014-02-06T09:56:04Z</time>
      </trkpt>
      <trkpt lat="42.93853" lon="0.16243">
        <ele>1789.15</ele>
        <time>2014-02-06T09:56:34Z</time>
      </trkpt>
      <trkpt lat="42.93872" lon="0.1624">
        <ele>1794.92</ele>
        <time>2014-02-06T09:57:04Z</time>
      </trkpt>
      <trkpt lat="42.93893" lon="0.16235">
        <ele>1800.69</ele>
        <time>2014-02-06T09:57:34Z</time>
      </trkpt>
      <trkpt lat="42.93913" lon="0.16239">
        <ele>1804.05</ele>
        <time>2014-02-06T09:58:04Z</time>
      </trkpt>
      <trkpt lat="42.93933" lon="0.16236">
        <ele>1804.05</ele>
        <time>2014-02-06T09:58:34Z</time>
      </trkpt>
      <trkpt lat="42.9395" lon="0.1623">
        <ele>1808.86</ele>
        <time>2014-02-06T09:59:04Z</time>
      </trkpt>
      <trkpt lat="42.93968" lon="0.16222">
        <ele>1815.11</ele>
        <time>2014-02-06T09:59:34Z</time>
      </trkpt>
      <trkpt lat="42.93981" lon="0.16206">
        <ele>1819.43</ele>
        <time>2014-02-06T10:00:04Z</time>
      </trkpt>
      <trkpt lat="42.93996" lon="0.16197">
        <ele>1816.55</ele>
        <time>2014-02-06T10:00:34Z</time>
      </trkpt>
      <trkpt lat="42.94011" lon="0.16186">
        <ele>1824.72</ele>
        <time>2014-02-06T10:01:04Z</time>
      </trkpt>
      <trkpt lat="42.94026" lon="0.16172">
        <ele>1833.37</ele>
        <time>2014-02-06T10:01:34Z</time>
      </trkpt>
      <trkpt lat="42.94039" lon="0.1618">
        <ele>1839.14</ele>
        <time>2014-02-06T10:02:04Z</time>
      </trkpt>
      <trkpt lat="42.94056" lon="0.16189">
        <ele>1843.47</ele>
        <time>2014-02-06T10:02:34Z</time>
      </trkpt>
      <trkpt lat="42.94074" lon="0.162">
        <ele>1846.83</ele>
        <time>2014-02-06T10:03:04Z</time>
      </trkpt>
      <trkpt lat="42.94095" lon="0.16214">
        <ele>1848.75</ele>
        <time>2014-02-06T10:03:34Z</time>
      </trkpt>
      <trkpt lat="42.94116" lon="0.16217">
        <ele>1854.52</ele>
        <time>2014-02-06T10:04:04Z</time>
      </trkpt>
      <trkpt lat="42.94135" lon="0.16219">
        <ele>1857.4</ele>
        <time>2014-02-06T10:04:34Z</time>
      </trkpt>
      <trkpt lat="42.94154" lon="0.16221">
        <ele>1863.65</ele>
        <time>2014-02-06T10:05:04Z</time>
      </trkpt>
      <trkpt lat="42.94177" lon="0.16221">
        <ele>1868.46</ele>
        <time>2014-02-06T10:05:34Z</time>
      </trkpt>
      <trkpt lat="42.94184" lon="0.16235">
        <ele>1869.9</ele>
        <time>2014-02-06T10:06:04Z</time>
      </trkpt>
      <trkpt lat="42.94185" lon="0.16255">
        <ele>1874.23</ele>
        <time>2014-02-06T10:06:34Z</time>
      </trkpt>
      <trkpt lat="42.94185" lon="0.16276">
        <ele>1876.63</ele>
        <time>2014-02-06T10:07:04Z</time>
      </trkpt>
      <trkpt lat="42.94184" lon="0.16298">
        <ele>1882.4</ele>
        <time>2014-02-06T10:07:34Z</time>
      </trkpt>
      <trkpt lat="42.94201" lon="0.16288">
        <ele>1882.4</ele>
        <time>2014-02-06T10:08:04Z</time>
      </trkpt>
      <trkpt lat="42.94208" lon="0.16281">
        <ele>1888.65</ele>
        <time>2014-02-06T10:08:34Z</time>
      </trkpt>
      <trkpt lat="42.94209" lon="0.16281">
        <ele>1887.69</ele>
        <time>2014-02-06T10:09:04Z</time>
      </trkpt>
      <trkpt lat="42.94226" lon="0.16269">
        <ele>1891.05</ele>
        <time>2014-02-06T10:09:34Z</time>
      </trkpt>
      <trkpt lat="42.94244" lon="0.16258">
        <ele>1895.86</ele>
        <time>2014-02-06T10:10:04Z</time>
      </trkpt>
      <trkpt lat="42.94261" lon="0.16254">
        <ele>1901.14</ele>
        <time>2014-02-06T10:10:34Z</time>
      </trkpt>
      <trkpt lat="42.94274" lon="0.16267">
        <ele>1904.99</ele>
        <time>2014-02-06T10:11:04Z</time>
      </trkpt>
      <trkpt lat="42.94285" lon="0.16285">
        <ele>1908.35</ele>
        <time>2014-02-06T10:11:34Z</time>
      </trkpt>
      <trkpt lat="42.94295" lon="0.16304">
        <ele>1913.16</ele>
        <time>2014-02-06T10:12:04Z</time>
      </trkpt>
      <trkpt lat="42.94301" lon="0.16323">
        <ele>1919.89</ele>
        <time>2014-02-06T10:12:34Z</time>
      </trkpt>
      <trkpt lat="42.94309" lon="0.16345">
        <ele>1917.97</ele>
        <time>2014-02-06T10:13:04Z</time>
      </trkpt>
      <trkpt lat="42.94322" lon="0.16369">
        <ele>1919.41</ele>
        <time>2014-02-06T10:13:34Z</time>
      </trkpt>
      <trkpt lat="42.94333" lon="0.16394">
        <ele>1922.29</ele>
        <time>2014-02-06T10:14:04Z</time>
      </trkpt>
      <trkpt lat="42.94344" lon="0.16419">
        <ele>1928.54</ele>
        <time>2014-02-06T10:14:34Z</time>
      </trkpt>
      <trkpt lat="42.94356" lon="0.16443">
        <ele>1932.39</ele>
        <time>2014-02-06T10:15:04Z</time>
      </trkpt>
      <trkpt lat="42.94369" lon="0.16463">
        <ele>1936.71</ele>
        <time>2014-02-06T10:15:34Z</time>
      </trkpt>
      <trkpt lat="42.94381" lon="0.16479">
        <ele>1940.08</ele>
        <time>2014-02-06T10:16:04Z</time>
      </trkpt>
      <trkpt lat="42.94393" lon="0.16481">
        <ele>1944.4</ele>
        <time>2014-02-06T10:16:34Z</time>
      </trkpt>
      <trkpt lat="42.94403" lon="0.16481">
        <ele>1946.81</ele>
        <time>2014-02-06T10:17:04Z</time>
      </trkpt>
      <trkpt lat="42.94418" lon="0.16477">
        <ele>1947.29</ele>
        <time>2014-02-06T10:17:34Z</time>
      </trkpt>
      <trkpt lat="42.94432" lon="0.16476">
        <ele>1958.34</ele>
        <time>2014-02-06T10:18:04Z</time>
      </trkpt>
      <trkpt lat="42.9445" lon="0.1647">
        <ele>1967.48</ele>
        <time>2014-02-06T10:18:34Z</time>
      </trkpt>
      <trkpt lat="42.94464" lon="0.16468">
        <ele>1967.48</ele>
        <time>2014-02-06T10:19:04Z</time>
      </trkpt>
      <trkpt lat="42.94478" lon="0.16473">
        <ele>1971.8</ele>
        <time>2014-02-06T10:19:34Z</time>
      </trkpt>
      <trkpt lat="42.94494" lon="0.16481">
        <ele>1977.57</ele>
        <time>2014-02-06T10:20:04Z</time>
      </trkpt>
      <trkpt lat="42.94508" lon="0.1648">
        <ele>1982.86</ele>
        <time>2014-02-06T10:20:34Z</time>
      </trkpt>
      <trkpt lat="42.94516" lon="0.16502">
        <ele>1986.7</ele>
        <time>2014-02-06T10:21:04Z</time>
      </trkpt>
      <trkpt lat="42.94535" lon="0.16507">
        <ele>1989.59</ele>
        <time>2014-02-06T10:21:34Z</time>
      </trkpt>
      <trkpt lat="42.9455" lon="0.16512">
        <ele>1991.99</ele>
        <time>2014-02-06T10:22:04Z</time>
      </trkpt>
      <trkpt lat="42.94571" lon="0.16507">
        <ele>1997.76</ele>
        <time>2014-02-06T10:22:34Z</time>
      </trkpt>
      <trkpt lat="42.94578" lon="0.16506">
        <ele>2000.16</ele>
        <time>2014-02-06T10:23:04Z</time>
      </trkpt>
      <trkpt lat="42.94577" lon="0.16503">
        <ele>2000.64</ele>
        <time>2014-02-06T10:23:34Z</time>
      </trkpt>
      <trkpt lat="42.94576" lon="0.16505">
        <ele>2000.16</ele>
        <time>2014-02-06T10:24:04Z</time>
      </trkpt>
      <trkpt lat="42.94591" lon="0.16506">
        <ele>2003.52</ele>
        <time>2014-02-06T10:24:34Z</time>
      </trkpt>
      <trkpt lat="42.94613" lon="0.16507">
        <ele>2007.85</ele>
        <time>2014-02-06T10:25:04Z</time>
      </trkpt>
      <trkpt lat="42.94634" lon="0.1651">
        <ele>2014.58</ele>
        <time>2014-02-06T10:25:34Z</time>
      </trkpt>
      <trkpt lat="42.94659" lon="0.16502">
        <ele>2016.98</ele>
        <time>2014-02-06T10:26:04Z</time>
      </trkpt>
      <trkpt lat="42.94677" lon="0.16497">
        <ele>2020.83</ele>
        <time>2014-02-06T10:26:34Z</time>
      </trkpt>
      <trkpt lat="42.94696" lon="0.16493">
        <ele>2027.56</ele>
        <time>2014-02-06T10:27:04Z</time>
      </trkpt>
      <trkpt lat="42.94713" lon="0.16487">
        <ele>2033.33</ele>
        <time>2014-02-06T10:27:34Z</time>
      </trkpt>
      <trkpt lat="42.94733" lon="0.16478">
        <ele>2039.57</ele>
        <time>2014-02-06T10:28:04Z</time>
      </trkpt>
      <trkpt lat="42.94738" lon="0.16488">
        <ele>2044.38</ele>
        <time>2014-02-06T10:28:34Z</time>
      </trkpt>
      <trkpt lat="42.94744" lon="0.16494">
        <ele>2044.86</ele>
        <time>2014-02-06T10:29:04Z</time>
      </trkpt>
      <trkpt lat="42.94747" lon="0.16495">
        <ele>2046.3</ele>
        <time>2014-02-06T10:29:34Z</time>
      </trkpt>
      <trkpt lat="42.94752" lon="0.16496">
        <ele>2047.75</ele>
        <time>2014-02-06T10:30:04Z</time>
      </trkpt>
      <trkpt lat="42.94751" lon="0.16491">
        <ele>2048.23</ele>
        <time>2014-02-06T10:30:34Z</time>
      </trkpt>
      <trkpt lat="42.94748" lon="0.16493">
        <ele>2048.23</ele>
        <time>2014-02-06T10:31:04Z</time>
      </trkpt>
      <trkpt lat="42.94745" lon="0.16489">
        <ele>2047.26</ele>
        <time>2014-02-06T10:31:34Z</time>
      </trkpt>
      <trkpt lat="42.94747" lon="0.16492">
        <ele>2049.19</ele>
        <time>2014-02-06T10:32:04Z</time>
      </trkpt>
      <trkpt lat="42.94746" lon="0.16489">
        <ele>2050.63</ele>
        <time>2014-02-06T10:32:34Z</time>
      </trkpt>
      <trkpt lat="42.94744" lon="0.16497">
        <ele>2044.38</ele>
        <time>2014-02-06T10:33:04Z</time>
      </trkpt>
      <trkpt lat="42.94742" lon="0.16497">
        <ele>2045.82</ele>
        <time>2014-02-06T10:33:34Z</time>
      </trkpt>
      <trkpt lat="42.94743" lon="0.16497">
        <ele>2045.34</ele>
        <time>2014-02-06T10:34:04Z</time>
      </trkpt>
      <trkpt lat="42.94741" lon="0.16498">
        <ele>2045.34</ele>
        <time>2014-02-06T10:34:34Z</time>
      </trkpt>
      <trkpt lat="42.94751" lon="0.16497">
        <ele>2044.38</ele>
        <time>2014-02-06T10:35:04Z</time>
      </trkpt>
      <trkpt lat="42.94768" lon="0.1649">
        <ele>2048.71</ele>
        <time>2014-02-06T10:35:34Z</time>
      </trkpt>
      <trkpt lat="42.94781" lon="0.16488">
        <ele>2051.59</ele>
        <time>2014-02-06T10:36:04Z</time>
      </trkpt>
      <trkpt lat="42.94792" lon="0.16484">
        <ele>2058.32</ele>
        <time>2014-02-06T10:36:34Z</time>
      </trkpt>
      <trkpt lat="42.94799" lon="0.16488">
        <ele>2061.68</ele>
        <time>2014-02-06T10:37:04Z</time>
      </trkpt>
      <trkpt lat="42.94804" lon="0.16506">
        <ele>2061.68</ele>
        <time>2014-02-06T10:37:34Z</time>
      </trkpt>
      <trkpt lat="42.94807" lon="0.16526">
        <ele>2067.45</ele>
        <time>2014-02-06T10:38:04Z</time>
      </trkpt>
      <trkpt lat="42.94821" lon="0.16517">
        <ele>2072.74</ele>
        <time>2014-02-06T10:38:34Z</time>
      </trkpt>
      <trkpt lat="42.94831" lon="0.16504">
        <ele>2079.95</ele>
        <time>2014-02-06T10:39:04Z</time>
      </trkpt>
      <trkpt lat="42.94838" lon="0.16509">
        <ele>2085.72</ele>
        <time>2014-02-06T10:39:34Z</time>
      </trkpt>
      <trkpt lat="42.94836" lon="0.16531">
        <ele>2088.12</ele>
        <time>2014-02-06T10:40:04Z</time>
      </trkpt>
      <trkpt lat="42.9484" lon="0.16542">
        <ele>2091.49</ele>
        <time>2014-02-06T10:40:34Z</time>
      </trkpt>
      <trkpt lat="42.9484" lon="0.16559">
        <ele>2093.41</ele>
        <time>2014-02-06T10:41:04Z</time>
      </trkpt>
      <trkpt lat="42.94842" lon="0.16576">
        <ele>2098.21</ele>
        <time>2014-02-06T10:41:34Z</time>
      </trkpt>
      <trkpt lat="42.94852" lon="0.16576">
        <ele>2100.62</ele>
        <time>2014-02-06T10:42:04Z</time>
      </trkpt>
      <trkpt lat="42.9487" lon="0.16574">
        <ele>2105.91</ele>
        <time>2014-02-06T10:42:34Z</time>
      </trkpt>
      <trkpt lat="42.94875" lon="0.16581">
        <ele>2109.27</ele>
        <time>2014-02-06T10:43:04Z</time>
      </trkpt>
      <trkpt lat="42.94875" lon="0.16588">
        <ele>2110.23</ele>
        <time>2014-02-06T10:43:34Z</time>
      </trkpt>
      <trkpt lat="42.94886" lon="0.16594">
        <ele>2116</ele>
        <time>2014-02-06T10:44:04Z</time>
      </trkpt>
      <trkpt lat="42.94897" lon="0.16595">
        <ele>2120.81</ele>
        <time>2014-02-06T10:44:34Z</time>
      </trkpt>
      <trkpt lat="42.94893" lon="0.16595">
        <ele>2122.25</ele>
        <time>2014-02-06T10:45:04Z</time>
      </trkpt>
      <trkpt lat="42.94893" lon="0.16591">
        <ele>2124.65</ele>
        <time>2014-02-06T10:45:34Z</time>
      </trkpt>
      <trkpt lat="42.94894" lon="0.166">
        <ele>2125.61</ele>
        <time>2014-02-06T10:46:04Z</time>
      </trkpt>
      <trkpt lat="42.94896" lon="0.16594">
        <ele>2121.29</ele>
        <time>2014-02-06T10:46:34Z</time>
      </trkpt>
      <trkpt lat="42.94898" lon="0.16595">
        <ele>2126.09</ele>
        <time>2014-02-06T10:47:04Z</time>
      </trkpt>
      <trkpt lat="42.94897" lon="0.16595">
        <ele>2124.65</ele>
        <time>2014-02-06T10:47:34Z</time>
      </trkpt>
      <trkpt lat="42.94895" lon="0.16592">
        <ele>2126.09</ele>
        <time>2014-02-06T10:48:04Z</time>
      </trkpt>
      <trkpt lat="42.94896" lon="0.16593">
        <ele>2124.65</ele>
        <time>2014-02-06T10:48:34Z</time>
      </trkpt>
      <trkpt lat="42.94895" lon="0.16593">
        <ele>2123.21</ele>
        <time>2014-02-06T10:49:04Z</time>
      </trkpt>
      <trkpt lat="42.94894" lon="0.1659">
        <ele>2125.61</ele>
        <time>2014-02-06T10:49:34Z</time>
      </trkpt>
      <trkpt lat="42.94897" lon="0.16591">
        <ele>2127.53</ele>
        <time>2014-02-06T10:50:04Z</time>
      </trkpt>
      <trkpt lat="42.94901" lon="0.16592">
        <ele>2128.02</ele>
        <time>2014-02-06T10:50:34Z</time>
      </trkpt>
      <trkpt lat="42.94898" lon="0.16593">
        <ele>2125.13</ele>
        <time>2014-02-06T10:51:04Z</time>
      </trkpt>
      <trkpt lat="42.94897" lon="0.16594">
        <ele>2125.13</ele>
        <time>2014-02-06T10:51:34Z</time>
      </trkpt>
      <trkpt lat="42.94895" lon="0.16595">
        <ele>2127.05</ele>
        <time>2014-02-06T10:52:04Z</time>
      </trkpt>
      <trkpt lat="42.94898" lon="0.16594">
        <ele>2127.53</ele>
        <time>2014-02-06T10:52:34Z</time>
      </trkpt>
      <trkpt lat="42.94911" lon="0.16588">
        <ele>2131.38</ele>
        <time>2014-02-06T10:53:04Z</time>
      </trkpt>
      <trkpt lat="42.94928" lon="0.16585">
        <ele>2134.74</ele>
        <time>2014-02-06T10:53:34Z</time>
      </trkpt>
      <trkpt lat="42.94929" lon="0.16598">
        <ele>2140.51</ele>
        <time>2014-02-06T10:54:04Z</time>
      </trkpt>
      <trkpt lat="42.94934" lon="0.16603">
        <ele>2145.32</ele>
        <time>2014-02-06T10:54:34Z</time>
      </trkpt>
      <trkpt lat="42.94947" lon="0.16586">
        <ele>2148.2</ele>
        <time>2014-02-06T10:55:04Z</time>
      </trkpt>
      <trkpt lat="42.94951" lon="0.16576">
        <ele>2152.05</ele>
        <time>2014-02-06T10:55:34Z</time>
      </trkpt>
      <trkpt lat="42.94952" lon="0.16578">
        <ele>2152.53</ele>
        <time>2014-02-06T10:56:04Z</time>
      </trkpt>
      <trkpt lat="42.94959" lon="0.16591">
        <ele>2157.82</ele>
        <time>2014-02-06T10:56:34Z</time>
      </trkpt>
      <trkpt lat="42.94952" lon="0.16614">
        <ele>2162.14</ele>
        <time>2014-02-06T10:57:04Z</time>
      </trkpt>
      <trkpt lat="42.9495" lon="0.16626">
        <ele>2162.14</ele>
        <time>2014-02-06T10:57:34Z</time>
      </trkpt>
      <trkpt lat="42.94956" lon="0.16622">
        <ele>2161.66</ele>
        <time>2014-02-06T10:58:04Z</time>
      </trkpt>
      <trkpt lat="42.94945" lon="0.16644">
        <ele>2164.55</ele>
        <time>2014-02-06T10:58:34Z</time>
      </trkpt>
      <trkpt lat="42.94943" lon="0.16647">
        <ele>2165.51</ele>
        <time>2014-02-06T10:59:04Z</time>
      </trkpt>
      <trkpt lat="42.94946" lon="0.16648">
        <ele>2168.39</ele>
        <time>2014-02-06T10:59:34Z</time>
      </trkpt>
      <trkpt lat="42.94952" lon="0.16649">
        <ele>2172.24</ele>
        <time>2014-02-06T11:00:04Z</time>
      </trkpt>
      <trkpt lat="42.94951" lon="0.16647">
        <ele>2175.12</ele>
        <time>2014-02-06T11:00:34Z</time>
      </trkpt>
      <trkpt lat="42.94954" lon="0.16648">
        <ele>2177.52</ele>
        <time>2014-02-06T11:01:04Z</time>
      </trkpt>
      <trkpt lat="42.94952" lon="0.16645">
        <ele>2178.48</ele>
        <time>2014-02-06T11:01:34Z</time>
      </trkpt>
      <trkpt lat="42.9495" lon="0.16647">
        <ele>2177.52</ele>
        <time>2014-02-06T11:02:04Z</time>
      </trkpt>
      <trkpt lat="42.94951" lon="0.16646">
        <ele>2174.64</ele>
        <time>2014-02-06T11:02:34Z</time>
      </trkpt>
      <trkpt lat="42.94957" lon="0.16646">
        <ele>2177.52</ele>
        <time>2014-02-06T11:03:04Z</time>
      </trkpt>
      <trkpt lat="42.94956" lon="0.16639">
        <ele>2177.04</ele>
        <time>2014-02-06T11:03:34Z</time>
      </trkpt>
      <trkpt lat="42.94948" lon="0.16652">
        <ele>2170.31</ele>
        <time>2014-02-06T11:04:04Z</time>
      </trkpt>
      <trkpt lat="42.9494" lon="0.16653">
        <ele>2168.87</ele>
        <time>2014-02-06T11:04:34Z</time>
      </trkpt>
      <trkpt lat="42.94944" lon="0.16673">
        <ele>2171.76</ele>
        <time>2014-02-06T11:05:04Z</time>
      </trkpt>
      <trkpt lat="42.94951" lon="0.16697">
        <ele>2175.6</ele>
        <time>2014-02-06T11:05:34Z</time>
      </trkpt>
      <trkpt lat="42.9495" lon="0.16721">
        <ele>2177.04</ele>
        <time>2014-02-06T11:06:04Z</time>
      </trkpt>
      <trkpt lat="42.94948" lon="0.16741">
        <ele>2178.97</ele>
        <time>2014-02-06T11:06:34Z</time>
      </trkpt>
      <trkpt lat="42.94945" lon="0.16748">
        <ele>2180.89</ele>
        <time>2014-02-06T11:07:04Z</time>
      </trkpt>
      <trkpt lat="42.94942" lon="0.16766">
        <ele>2185.69</ele>
        <time>2014-02-06T11:07:34Z</time>
      </trkpt>
      <trkpt lat="42.94947" lon="0.16783">
        <ele>2191.94</ele>
        <time>2014-02-06T11:08:04Z</time>
      </trkpt>
      <trkpt lat="42.94956" lon="0.16796">
        <ele>2194.35</ele>
        <time>2014-02-06T11:08:34Z</time>
      </trkpt>
      <trkpt lat="42.94956" lon="0.16808">
        <ele>2195.79</ele>
        <time>2014-02-06T11:09:04Z</time>
      </trkpt>
      <trkpt lat="42.94958" lon="0.1684">
        <ele>2198.19</ele>
        <time>2014-02-06T11:09:34Z</time>
      </trkpt>
      <trkpt lat="42.94951" lon="0.16865">
        <ele>2201.56</ele>
        <time>2014-02-06T11:10:04Z</time>
      </trkpt>
      <trkpt lat="42.94949" lon="0.16884">
        <ele>2203</ele>
        <time>2014-02-06T11:10:34Z</time>
      </trkpt>
      <trkpt lat="42.94947" lon="0.16894">
        <ele>2203.48</ele>
        <time>2014-02-06T11:11:04Z</time>
      </trkpt>
      <trkpt lat="42.94948" lon="0.16893">
        <ele>2203.96</ele>
        <time>2014-02-06T11:11:34Z</time>
      </trkpt>
      <trkpt lat="42.94948" lon="0.16895">
        <ele>2204.44</ele>
        <time>2014-02-06T11:12:04Z</time>
      </trkpt>
      <trkpt lat="42.94948" lon="0.16893">
        <ele>2203</ele>
        <time>2014-02-06T11:12:34Z</time>
      </trkpt>
      <trkpt lat="42.94947" lon="0.16895">
        <ele>2205.4</ele>
        <time>2014-02-06T11:13:04Z</time>
      </trkpt>
      <trkpt lat="42.94943" lon="0.16897">
        <ele>2212.61</ele>
        <time>2014-02-06T11:13:34Z</time>
      </trkpt>
      <trkpt lat="42.94942" lon="0.16893">
        <ele>2209.73</ele>
        <time>2014-02-06T11:14:04Z</time>
      </trkpt>
      <trkpt lat="42.94945" lon="0.16892">
        <ele>2207.32</ele>
        <time>2014-02-06T11:14:34Z</time>
      </trkpt>
      <trkpt lat="42.94947" lon="0.16891">
        <ele>2204.92</ele>
        <time>2014-02-06T11:15:04Z</time>
      </trkpt>
      <trkpt lat="42.94946" lon="0.16893">
        <ele>2204.44</ele>
        <time>2014-02-06T11:15:34Z</time>
      </trkpt>
      <trkpt lat="42.94946" lon="0.16894">
        <ele>2206.84</ele>
        <time>2014-02-06T11:16:04Z</time>
      </trkpt>
      <trkpt lat="42.94947" lon="0.16893">
        <ele>2203</ele>
        <time>2014-02-06T11:16:34Z</time>
      </trkpt>
      <trkpt lat="42.94947" lon="0.16895">
        <ele>2201.56</ele>
        <time>2014-02-06T11:17:04Z</time>
      </trkpt>
      <trkpt lat="42.94945" lon="0.16894">
        <ele>2203</ele>
        <time>2014-02-06T11:17:34Z</time>
      </trkpt>
      <trkpt lat="42.94945" lon="0.16893">
        <ele>2205.4</ele>
        <time>2014-02-06T11:18:04Z</time>
      </trkpt>
      <trkpt lat="42.94945" lon="0.16891">
        <ele>2201.56</ele>
        <time>2014-02-06T11:18:34Z</time>
      </trkpt>
      <trkpt lat="42.94946" lon="0.16892">
        <ele>2201.56</ele>
        <time>2014-02-06T11:19:04Z</time>
      </trkpt>
      <trkpt lat="42.94946" lon="0.16893">
        <ele>2203.48</ele>
        <time>2014-02-06T11:19:34Z</time>
      </trkpt>
      <trkpt lat="42.94944" lon="0.16894">
        <ele>2205.4</ele>
        <time>2014-02-06T11:20:04Z</time>
      </trkpt>
      <trkpt lat="42.94946" lon="0.16896">
        <ele>2203.48</ele>
        <time>2014-02-06T11:20:34Z</time>
      </trkpt>
      <trkpt lat="42.94944" lon="0.16896">
        <ele>2206.36</ele>
        <time>2014-02-06T11:21:04Z</time>
      </trkpt>
      <trkpt lat="42.94947" lon="0.16893">
        <ele>2205.88</ele>
        <time>2014-02-06T11:21:34Z</time>
      </trkpt>
      <trkpt lat="42.94948" lon="0.16891">
        <ele>2206.84</ele>
        <time>2014-02-06T11:22:04Z</time>
      </trkpt>
      <trkpt lat="42.94949" lon="0.16893">
        <ele>2208.29</ele>
        <time>2014-02-06T11:22:34Z</time>
      </trkpt>
      <trkpt lat="42.94948" lon="0.1689">
        <ele>2210.21</ele>
        <time>2014-02-06T11:23:04Z</time>
      </trkpt>
      <trkpt lat="42.94948" lon="0.16891">
        <ele>2210.21</ele>
        <time>2014-02-06T11:23:34Z</time>
      </trkpt>
      <trkpt lat="42.94949" lon="0.16896">
        <ele>2209.73</ele>
        <time>2014-02-06T11:24:04Z</time>
      </trkpt>
      <trkpt lat="42.94948" lon="0.16894">
        <ele>2211.17</ele>
        <time>2014-02-06T11:24:34Z</time>
      </trkpt>
      <trkpt lat="42.94949" lon="0.16895">
        <ele>2209.25</ele>
        <time>2014-02-06T11:25:04Z</time>
      </trkpt>
      <trkpt lat="42.94965" lon="0.16847">
        <ele>2204.92</ele>
        <time>2014-02-06T11:25:34Z</time>
      </trkpt>
      <trkpt lat="42.94964" lon="0.16768">
        <ele>2194.83</ele>
        <time>2014-02-06T11:26:04Z</time>
      </trkpt>
      <trkpt lat="42.94974" lon="0.16693">
        <ele>2179.45</ele>
        <time>2014-02-06T11:26:34Z</time>
      </trkpt>
      <trkpt lat="42.94954" lon="0.16688">
        <ele>2171.76</ele>
        <time>2014-02-06T11:27:04Z</time>
      </trkpt>
      <trkpt lat="42.94952" lon="0.16636">
        <ele>2165.03</ele>
        <time>2014-02-06T11:27:34Z</time>
      </trkpt>
      <trkpt lat="42.94951" lon="0.16622">
        <ele>2155.41</ele>
        <time>2014-02-06T11:28:04Z</time>
      </trkpt>
      <trkpt lat="42.94953" lon="0.16578">
        <ele>2141.95</ele>
        <time>2014-02-06T11:28:34Z</time>
      </trkpt>
      <trkpt lat="42.94952" lon="0.16577">
        <ele>2148.2</ele>
        <time>2014-02-06T11:29:04Z</time>
      </trkpt>
      <trkpt lat="42.94952" lon="0.16577">
        <ele>2146.28</ele>
        <time>2014-02-06T11:29:34Z</time>
      </trkpt>
      <trkpt lat="42.94953" lon="0.16578">
        <ele>2147.72</ele>
        <time>2014-02-06T11:30:04Z</time>
      </trkpt>
      <trkpt lat="42.9485" lon="0.16586">
        <ele>2105.42</ele>
        <time>2014-02-06T11:30:34Z</time>
      </trkpt>
      <trkpt lat="42.94779" lon="0.16575">
        <ele>2066.97</ele>
        <time>2014-02-06T11:31:04Z</time>
      </trkpt>
      <trkpt lat="42.94748" lon="0.16553">
        <ele>2041.98</ele>
        <time>2014-02-06T11:31:34Z</time>
      </trkpt>
      <trkpt lat="42.94748" lon="0.16552">
        <ele>2042.46</ele>
        <time>2014-02-06T11:32:04Z</time>
      </trkpt>
      <trkpt lat="42.94749" lon="0.16552">
        <ele>2043.9</ele>
        <time>2014-02-06T11:32:34Z</time>
      </trkpt>
      <trkpt lat="42.9475" lon="0.16552">
        <ele>2042.94</ele>
        <time>2014-02-06T11:33:04Z</time>
      </trkpt>
      <trkpt lat="42.94748" lon="0.16552">
        <ele>2043.42</ele>
        <time>2014-02-06T11:33:34Z</time>
      </trkpt>
      <trkpt lat="42.94746" lon="0.16552">
        <ele>2042.46</ele>
        <time>2014-02-06T11:34:04Z</time>
      </trkpt>
      <trkpt lat="42.94747" lon="0.16551">
        <ele>2041.98</ele>
        <time>2014-02-06T11:34:34Z</time>
      </trkpt>
      <trkpt lat="42.94742" lon="0.16552">
        <ele>2041.5</ele>
        <time>2014-02-06T11:35:04Z</time>
      </trkpt>
      <trkpt lat="42.94611" lon="0.16542">
        <ele>2010.73</ele>
        <time>2014-02-06T11:35:34Z</time>
      </trkpt>
      <trkpt lat="42.94529" lon="0.16503">
        <ele>1987.66</ele>
        <time>2014-02-06T11:36:04Z</time>
      </trkpt>
      <trkpt lat="42.94528" lon="0.16501">
        <ele>1986.22</ele>
        <time>2014-02-06T11:36:34Z</time>
      </trkpt>
      <trkpt lat="42.94528" lon="0.16499">
        <ele>1988.14</ele>
        <time>2014-02-06T11:37:04Z</time>
      </trkpt>
      <trkpt lat="42.94461" lon="0.16479">
        <ele>1968.44</ele>
        <time>2014-02-06T11:37:34Z</time>
      </trkpt>
      <trkpt lat="42.94353" lon="0.16437">
        <ele>1936.23</ele>
        <time>2014-02-06T11:38:04Z</time>
      </trkpt>
      <trkpt lat="42.943" lon="0.16321">
        <ele>1916.04</ele>
        <time>2014-02-06T11:38:34Z</time>
      </trkpt>
      <trkpt lat="42.94224" lon="0.16306">
        <ele>1897.3</ele>
        <time>2014-02-06T11:39:04Z</time>
      </trkpt>
      <trkpt lat="42.94117" lon="0.16309">
        <ele>1856.44</ele>
        <time>2014-02-06T11:39:34Z</time>
      </trkpt>
      <trkpt lat="42.9402" lon="0.16289">
        <ele>1839.62</ele>
        <time>2014-02-06T11:40:04Z</time>
      </trkpt>
      <trkpt lat="42.93958" lon="0.1624">
        <ele>1816.55</ele>
        <time>2014-02-06T11:40:34Z</time>
      </trkpt>
      <trkpt lat="42.9394" lon="0.16241">
        <ele>1810.3</ele>
        <time>2014-02-06T11:41:04Z</time>
      </trkpt>
      <trkpt lat="42.93885" lon="0.16223">
        <ele>1791.55</ele>
        <time>2014-02-06T11:41:34Z</time>
      </trkpt>
      <trkpt lat="42.93771" lon="0.16272">
        <ele>1773.77</ele>
        <time>2014-02-06T11:42:04Z</time>
      </trkpt>
      <trkpt lat="42.93679" lon="0.16315">
        <ele>1735.32</ele>
        <time>2014-02-06T11:42:34Z</time>
      </trkpt>
      <trkpt lat="42.93684" lon="0.16307">
        <ele>1741.57</ele>
        <time>2014-02-06T11:43:04Z</time>
      </trkpt>
      <trkpt lat="42.93684" lon="0.16304">
        <ele>1744.93</ele>
        <time>2014-02-06T11:43:34Z</time>
      </trkpt>
      <trkpt lat="42.93678" lon="0.16311">
        <ele>1744.93</ele>
        <time>2014-02-06T12:17:30Z</time>
      </trkpt>
      <trkpt lat="42.93686" lon="0.16305">
        <ele>1747.33</ele>
        <time>2014-02-06T12:18:00Z</time>
      </trkpt>
      <trkpt lat="42.93691" lon="0.16311">
        <ele>1741.57</ele>
        <time>2014-02-06T12:18:30Z</time>
      </trkpt>
      <trkpt lat="42.93694" lon="0.16316">
        <ele>1729.55</ele>
        <time>2014-02-06T12:19:00Z</time>
      </trkpt>
      <trkpt lat="42.93686" lon="0.16298">
        <ele>1735.8</ele>
        <time>2014-02-06T12:19:30Z</time>
      </trkpt>
      <trkpt lat="42.93682" lon="0.16305">
        <ele>1740.6</ele>
        <time>2014-02-06T12:20:00Z</time>
      </trkpt>
      <trkpt lat="42.93681" lon="0.1631">
        <ele>1745.41</ele>
        <time>2014-02-06T12:20:30Z</time>
      </trkpt>
      <trkpt lat="42.93683" lon="0.16309">
        <ele>1746.85</ele>
        <time>2014-02-06T12:21:00Z</time>
      </trkpt>
      <trkpt lat="42.93684" lon="0.16309">
        <ele>1746.85</ele>
        <time>2014-02-06T12:21:30Z</time>
      </trkpt>
      <trkpt lat="42.93682" lon="0.16309">
        <ele>1750.22</ele>
        <time>2014-02-06T12:22:00Z</time>
      </trkpt>
      <trkpt lat="42.93681" lon="0.16313">
        <ele>1748.78</ele>
        <time>2014-02-06T12:22:30Z</time>
      </trkpt>
      <trkpt lat="42.93681" lon="0.16311">
        <ele>1750.7</ele>
        <time>2014-02-06T12:23:00Z</time>
      </trkpt>
      <trkpt lat="42.93681" lon="0.16309">
        <ele>1747.81</ele>
        <time>2014-02-06T12:23:30Z</time>
      </trkpt>
      <trkpt lat="42.93649" lon="0.16337">
        <ele>1743.49</ele>
        <time>2014-02-06T12:24:00Z</time>
      </trkpt>
      <trkpt lat="42.93604" lon="0.16392">
        <ele>1738.2</ele>
        <time>2014-02-06T12:24:30Z</time>
      </trkpt>
      <trkpt lat="42.93529" lon="0.1651">
        <ele>1723.78</ele>
        <time>2014-02-06T12:25:00Z</time>
      </trkpt>
      <trkpt lat="42.9348" lon="0.16568">
        <ele>1715.13</ele>
        <time>2014-02-06T12:25:30Z</time>
      </trkpt>
      <trkpt lat="42.9342" lon="0.1666">
        <ele>1704.55</ele>
        <time>2014-02-06T12:26:00Z</time>
      </trkpt>
      <trkpt lat="42.93372" lon="0.16754">
        <ele>1685.33</ele>
        <time>2014-02-06T12:26:30Z</time>
      </trkpt>
      <trkpt lat="42.93309" lon="0.16866">
        <ele>1672.35</ele>
        <time>2014-02-06T12:27:00Z</time>
      </trkpt>
      <trkpt lat="42.93298" lon="0.16924">
        <ele>1666.58</ele>
        <time>2014-02-06T12:27:30Z</time>
      </trkpt>
      <trkpt lat="42.93296" lon="0.17058">
        <ele>1653.12</ele>
        <time>2014-02-06T12:28:00Z</time>
      </trkpt>
      <trkpt lat="42.93302" lon="0.17128">
        <ele>1636.3</ele>
        <time>2014-02-06T12:28:30Z</time>
      </trkpt>
      <trkpt lat="42.93303" lon="0.17136">
        <ele>1632.94</ele>
        <time>2014-02-06T12:29:00Z</time>
      </trkpt>
      <trkpt lat="42.93304" lon="0.17152">
        <ele>1628.61</ele>
        <time>2014-02-06T12:29:30Z</time>
      </trkpt>
      <trkpt lat="42.93303" lon="0.17155">
        <ele>1633.42</ele>
        <time>2014-02-06T12:30:00Z</time>
      </trkpt>
      <trkpt lat="42.93294" lon="0.17198">
        <ele>1625.25</ele>
        <time>2014-02-06T12:30:30Z</time>
      </trkpt>
      <trkpt lat="42.93258" lon="0.17284">
        <ele>1611.31</ele>
        <time>2014-02-06T12:31:00Z</time>
      </trkpt>
      <trkpt lat="42.93249" lon="0.17315">
        <ele>1605.54</ele>
        <time>2014-02-06T12:31:30Z</time>
      </trkpt>
      <trkpt lat="42.93236" lon="0.17346">
        <ele>1601.21</ele>
        <time>2014-02-06T12:32:00Z</time>
      </trkpt>
      <trkpt lat="42.93217" lon="0.17383">
        <ele>1604.58</ele>
        <time>2014-02-06T12:32:30Z</time>
      </trkpt>
      <trkpt lat="42.93206" lon="0.17427">
        <ele>1604.1</ele>
        <time>2014-02-06T12:33:00Z</time>
      </trkpt>
      <trkpt lat="42.932" lon="0.17481">
        <ele>1602.66</ele>
        <time>2014-02-06T12:33:30Z</time>
      </trkpt>
      <trkpt lat="42.93197" lon="0.17486">
        <ele>1598.81</ele>
        <time>2014-02-06T12:34:00Z</time>
      </trkpt>
      <trkpt lat="42.932" lon="0.17505">
        <ele>1597.85</ele>
        <time>2014-02-06T12:34:30Z</time>
      </trkpt>
      <trkpt lat="42.93186" lon="0.17537">
        <ele>1601.21</ele>
        <time>2014-02-06T12:35:00Z</time>
      </trkpt>
      <trkpt lat="42.93165" lon="0.17546">
        <ele>1606.02</ele>
        <time>2014-02-06T12:35:30Z</time>
      </trkpt>
      <trkpt lat="42.93161" lon="0.17543">
        <ele>1602.66</ele>
        <time>2014-02-06T12:36:00Z</time>
      </trkpt>
      <trkpt lat="42.9316" lon="0.17551">
        <ele>1603.14</ele>
        <time>2014-02-06T12:36:30Z</time>
      </trkpt>
      <trkpt lat="42.93166" lon="0.17546">
        <ele>1605.06</ele>
        <time>2014-02-06T12:37:00Z</time>
      </trkpt>
      <trkpt lat="42.93163" lon="0.17549">
        <ele>1604.58</ele>
        <time>2014-02-06T12:37:30Z</time>
      </trkpt>
      <trkpt lat="42.93158" lon="0.1757">
        <ele>1596.89</ele>
        <time>2014-02-06T12:38:00Z</time>
      </trkpt>
      <trkpt lat="42.93135" lon="0.17656">
        <ele>1587.75</ele>
        <time>2014-02-06T12:38:30Z</time>
      </trkpt>
      <trkpt lat="42.93092" lon="0.17772">
        <ele>1582.95</ele>
        <time>2014-02-06T12:39:00Z</time>
      </trkpt>
      <trkpt lat="42.93043" lon="0.17917">
        <ele>1572.85</ele>
        <time>2014-02-06T12:39:30Z</time>
      </trkpt>
      <trkpt lat="42.92987" lon="0.18038">
        <ele>1566.12</ele>
        <time>2014-02-06T12:40:00Z</time>
      </trkpt>
      <trkpt lat="42.92916" lon="0.18129">
        <ele>1564.68</ele>
        <time>2014-02-06T12:40:30Z</time>
      </trkpt>
      <trkpt lat="42.92885" lon="0.18164">
        <ele>1565.16</ele>
        <time>2014-02-06T12:41:00Z</time>
      </trkpt>
      <trkpt lat="42.9286" lon="0.18197">
        <ele>1559.4</ele>
        <time>2014-02-06T12:41:30Z</time>
      </trkpt>
      <trkpt lat="42.92808" lon="0.18318">
        <ele>1547.86</ele>
        <time>2014-02-06T12:42:00Z</time>
      </trkpt>
      <trkpt lat="42.9275" lon="0.18449">
        <ele>1542.57</ele>
        <time>2014-02-06T12:42:30Z</time>
      </trkpt>
      <trkpt lat="42.92673" lon="0.18522">
        <ele>1524.79</ele>
        <time>2014-02-06T12:43:00Z</time>
      </trkpt>
      <trkpt lat="42.92639" lon="0.18588">
        <ele>1510.85</ele>
        <time>2014-02-06T12:43:30Z</time>
      </trkpt>
      <trkpt lat="42.92628" lon="0.18619">
        <ele>1506.04</ele>
        <time>2014-02-06T12:44:00Z</time>
      </trkpt>
      <trkpt lat="42.92627" lon="0.18616">
        <ele>1504.6</ele>
        <time>2014-02-06T12:44:30Z</time>
      </trkpt>
      <trkpt lat="42.92628" lon="0.18619">
        <ele>1503.64</ele>
        <time>2014-02-06T12:45:00Z</time>
      </trkpt>
      <trkpt lat="42.92626" lon="0.18618">
        <ele>1504.6</ele>
        <time>2014-02-06T12:45:30Z</time>
      </trkpt>
      <trkpt lat="42.92627" lon="0.18619">
        <ele>1506.52</ele>
        <time>2014-02-06T12:46:00Z</time>
      </trkpt>
      <trkpt lat="42.92629" lon="0.18617">
        <ele>1501.72</ele>
        <time>2014-02-06T12:46:30Z</time>
      </trkpt>
      <trkpt lat="42.92627" lon="0.18614">
        <ele>1504.6</ele>
        <time>2014-02-06T12:47:00Z</time>
      </trkpt>
      <trkpt lat="42.92628" lon="0.18616">
        <ele>1502.2</ele>
        <time>2014-02-06T12:47:30Z</time>
      </trkpt>
      <trkpt lat="42.92626" lon="0.18617">
        <ele>1504.12</ele>
        <time>2014-02-06T12:48:00Z</time>
      </trkpt>
      <trkpt lat="42.92628" lon="0.18619">
        <ele>1503.16</ele>
        <time>2014-02-06T12:48:29Z</time>
      </trkpt>
      <trkpt lat="42.92629" lon="0.18616">
        <ele>1500.76</ele>
        <time>2014-02-06T12:49:00Z</time>
      </trkpt>
      <trkpt lat="42.92629" lon="0.18617">
        <ele>1497.39</ele>
        <time>2014-02-06T12:49:30Z</time>
      </trkpt>
      <trkpt lat="42.92626" lon="0.18619">
        <ele>1499.79</ele>
        <time>2014-02-06T12:50:00Z</time>
      </trkpt>
      <trkpt lat="42.9262" lon="0.18646">
        <ele>1493.06</ele>
        <time>2014-02-06T12:50:30Z</time>
      </trkpt>
      <trkpt lat="42.92618" lon="0.18665">
        <ele>1489.22</ele>
        <time>2014-02-06T12:51:00Z</time>
      </trkpt>
      <trkpt lat="42.92611" lon="0.18692">
        <ele>1481.05</ele>
        <time>2014-02-06T12:51:30Z</time>
      </trkpt>
      <trkpt lat="42.92606" lon="0.18745">
        <ele>1474.32</ele>
        <time>2014-02-06T12:52:00Z</time>
      </trkpt>
      <trkpt lat="42.92599" lon="0.18777">
        <ele>1472.88</ele>
        <time>2014-02-06T12:52:30Z</time>
      </trkpt>
      <trkpt lat="42.92603" lon="0.18991">
        <ele>1461.82</ele>
        <time>2014-02-06T12:53:00Z</time>
      </trkpt>
      <trkpt lat="42.92572" lon="0.19069">
        <ele>1445</ele>
        <time>2014-02-06T12:53:30Z</time>
      </trkpt>
      <trkpt lat="42.92578" lon="0.19071">
        <ele>1436.83</ele>
        <time>2014-02-06T12:54:00Z</time>
      </trkpt>
      <trkpt lat="42.92577" lon="0.19069">
        <ele>1435.39</ele>
        <time>2014-02-06T12:54:30Z</time>
      </trkpt>
      <trkpt lat="42.92579" lon="0.19062">
        <ele>1427.21</ele>
        <time>2014-02-06T12:55:00Z</time>
      </trkpt>
      <trkpt lat="42.92579" lon="0.1906">
        <ele>1424.81</ele>
        <time>2014-02-06T12:55:30Z</time>
      </trkpt>
      <trkpt lat="42.92579" lon="0.19062">
        <ele>1430.1</ele>
        <time>2014-02-06T12:56:00Z</time>
      </trkpt>
      <trkpt lat="42.92579" lon="0.19062">
        <ele>1431.54</ele>
        <time>2014-02-06T12:56:30Z</time>
      </trkpt>
      <trkpt lat="42.9258" lon="0.19063">
        <ele>1429.14</ele>
        <time>2014-02-06T12:57:00Z</time>
      </trkpt>
      <trkpt lat="42.92579" lon="0.19063">
        <ele>1427.7</ele>
        <time>2014-02-06T12:57:30Z</time>
      </trkpt>
      <trkpt lat="42.92581" lon="0.19065">
        <ele>1429.14</ele>
        <time>2014-02-06T12:58:00Z</time>
      </trkpt>
      <trkpt lat="42.92582" lon="0.19065">
        <ele>1431.06</ele>
        <time>2014-02-06T12:58:30Z</time>
      </trkpt>
      <trkpt lat="42.92577" lon="0.1909">
        <ele>1430.58</ele>
        <time>2014-02-06T12:59:00Z</time>
      </trkpt>
      <trkpt lat="42.92565" lon="0.19131">
        <ele>1431.54</ele>
        <time>2014-02-06T12:59:30Z</time>
      </trkpt>
      <trkpt lat="42.92554" lon="0.19175">
        <ele>1425.77</ele>
        <time>2014-02-06T13:00:00Z</time>
      </trkpt>
      <trkpt lat="42.92547" lon="0.1922">
        <ele>1420.97</ele>
        <time>2014-02-06T13:00:30Z</time>
      </trkpt>
      <trkpt lat="42.9254" lon="0.19265">
        <ele>1418.56</ele>
        <time>2014-02-06T13:01:00Z</time>
      </trkpt>
      <trkpt lat="42.92547" lon="0.19306">
        <ele>1411.35</ele>
        <time>2014-02-06T13:01:30Z</time>
      </trkpt>
      <trkpt lat="42.92556" lon="0.19333">
        <ele>1402.22</ele>
        <time>2014-02-06T13:02:00Z</time>
      </trkpt>
      <trkpt lat="42.92575" lon="0.19339">
        <ele>1396.93</ele>
        <time>2014-02-06T13:02:30Z</time>
      </trkpt>
      <trkpt lat="42.92598" lon="0.19348">
        <ele>1391.65</ele>
        <time>2014-02-06T13:03:00Z</time>
      </trkpt>
      <trkpt lat="42.92618" lon="0.19365">
        <ele>1382.03</ele>
        <time>2014-02-06T13:03:30Z</time>
      </trkpt>
      <trkpt lat="42.92625" lon="0.19396">
        <ele>1377.23</ele>
        <time>2014-02-06T13:04:00Z</time>
      </trkpt>
      <trkpt lat="42.92629" lon="0.19426">
        <ele>1372.42</ele>
        <time>2014-02-06T13:04:30Z</time>
      </trkpt>
      <trkpt lat="42.92631" lon="0.19449">
        <ele>1371.94</ele>
        <time>2014-02-06T13:05:00Z</time>
      </trkpt>
      <trkpt lat="42.9263" lon="0.19465">
        <ele>1372.9</ele>
        <time>2014-02-06T13:05:30Z</time>
      </trkpt>
      <trkpt lat="42.92628" lon="0.19484">
        <ele>1372.42</ele>
        <time>2014-02-06T13:06:00Z</time>
      </trkpt>
      <trkpt lat="42.92625" lon="0.19511">
        <ele>1366.17</ele>
        <time>2014-02-06T13:06:30Z</time>
      </trkpt>
      <trkpt lat="42.92626" lon="0.19542">
        <ele>1362.33</ele>
        <time>2014-02-06T13:07:00Z</time>
      </trkpt>
      <trkpt lat="42.9263" lon="0.19572">
        <ele>1354.63</ele>
        <time>2014-02-06T13:07:30Z</time>
      </trkpt>
      <trkpt lat="42.92647" lon="0.1959">
        <ele>1344.06</ele>
        <time>2014-02-06T13:08:00Z</time>
      </trkpt>
      <trkpt lat="42.9266" lon="0.19604">
        <ele>1337.81</ele>
        <time>2014-02-06T13:08:30Z</time>
      </trkpt>
      <trkpt lat="42.92673" lon="0.19621">
        <ele>1333.49</ele>
        <time>2014-02-06T13:09:00Z</time>
      </trkpt>
      <trkpt lat="42.92693" lon="0.19626">
        <ele>1331.08</ele>
        <time>2014-02-06T13:09:30Z</time>
      </trkpt>
      <trkpt lat="42.92697" lon="0.19651">
        <ele>1333.97</ele>
        <time>2014-02-06T13:10:00Z</time>
      </trkpt>
      <trkpt lat="42.92703" lon="0.19684">
        <ele>1325.31</ele>
        <time>2014-02-06T13:10:30Z</time>
      </trkpt>
      <trkpt lat="42.92715" lon="0.19708">
        <ele>1314.26</ele>
        <time>2014-02-06T13:11:00Z</time>
      </trkpt>
      <trkpt lat="42.92725" lon="0.19739">
        <ele>1309.45</ele>
        <time>2014-02-06T13:11:30Z</time>
      </trkpt>
      <trkpt lat="42.92704" lon="0.19759">
        <ele>1308.97</ele>
        <time>2014-02-06T13:12:00Z</time>
      </trkpt>
      <trkpt lat="42.92695" lon="0.19785">
        <ele>1296.48</ele>
        <time>2014-02-06T13:12:30Z</time>
      </trkpt>
      <trkpt lat="42.92716" lon="0.19804">
        <ele>1283.98</ele>
        <time>2014-02-06T13:13:00Z</time>
      </trkpt>
      <trkpt lat="42.92725" lon="0.19816">
        <ele>1286.86</ele>
        <time>2014-02-06T13:13:30Z</time>
      </trkpt>
      <trkpt lat="42.92708" lon="0.1983">
        <ele>1289.27</ele>
        <time>2014-02-06T13:14:00Z</time>
      </trkpt>
      <trkpt lat="42.92701" lon="0.19843">
        <ele>1285.42</ele>
        <time>2014-02-06T13:14:30Z</time>
      </trkpt>
      <trkpt lat="42.92703" lon="0.19845">
        <ele>1277.73</ele>
        <time>2014-02-06T13:14:54Z</time>
      </trkpt>
    </trkseg>
  </trk>
</gpx>